ホーチミン の空港の天気 - METARとTAF

タンソンニャット国際空港 (ホーチミン) ( VVTS / SGN ) - ベトナム ホーチミン市
飛行場実況気象(Metar)
観測時間10/21 00:00 ICT (10/20 17:00 UTC)
風向・風速南東 3m/s
視程10km以上
天気現象
少しの雲 雲底高度 520m
全天の4割程度の雲 雲底高度 1520m
気温27℃
湿度94%
気圧1012hPa
METARVVTS 201700Z 14005KT 110V180 9999 FEW017 SCT050 27/26 Q1012 NOSIG
過去の天気等 Google飛行場航空写真 Wunderground天気予報

過去48時間のMETAR

飛行場予報(TAF)
発表時間: 10/20 19:02 ICT (10/20 12:02 UTC)
予報対象時間: 20日19時 ICT ~ 22日1時 ICT
風向・風速南東 4m/s
視程10km以上
全天の4割程度の雲 雲底高度 520m
20日20時 ICT ~ 20日23時 ICT に一時的に
風向・風速南東 8m/s 瞬間風速 14m/s
視程3000m
天気現象雷雨
全天の8割程度の雲 雲底高度 460m
全天の4割程度の積乱雲 雲底高度 520m
21日14時 ICT ~ 21日18時 ICT に一時的に
視程5000m
天気現象雷雨
全天の8割程度の雲 雲底高度 460m
少しの積乱雲 雲底高度 520m
TAF AMD VVTS 201202Z 2012/2118 14007KT 9999 SCT017
TEMPO 2013/2016 14015G28KT 3000 TSRA BKN015 SCT017CB
TEMPO 2107/2111 5000 TSRA BKN015 FEW017CB